sensor_id;sensor_type;location;lat;lon;timestamp;temperature;humidity
51567;DHT22;37657;53.182;5.638;2023-06-10T00:01:58;15.90;99.90
51567;DHT22;37657;53.182;5.638;2023-06-10T00:04:25;15.90;99.90
51567;DHT22;37657;53.182;5.638;2023-06-10T00:06:51;15.70;99.90
51567;DHT22;37657;53.182;5.638;2023-06-10T00:09:17;15.90;99.90
51567;DHT22;37657;53.182;5.638;2023-06-10T00:11:44;15.90;99.90
51567;DHT22;37657;53.182;5.638;2023-06-10T00:14:09;15.90;99.90
51567;DHT22;37657;53.182;5.638;2023-06-10T00:16:35;15.90;99.90
51567;DHT22;37657;53.182;5.638;2023-06-10T00:19:02;16.00;99.90
51567;DHT22;37657;53.182;5.638;2023-06-10T00:21:47;16.10;99.90
51567;DHT22;37657;53.182;5.638;2023-06-10T00:24:12;16.10;99.90
51567;DHT22;37657;53.182;5.638;2023-06-10T00:26:39;16.20;99.90
51567;DHT22;37657;53.182;5.638;2023-06-10T00:29:05;16.20;99.90
51567;DHT22;37657;53.182;5.638;2023-06-10T00:31:30;16.30;99.90
51567;DHT22;37657;53.182;5.638;2023-06-10T00:33:56;16.30;99.90
51567;DHT22;37657;53.182;5.638;2023-06-10T00:36:22;16.40;99.90
51567;DHT22;37657;53.182;5.638;2023-06-10T00:38:47;16.30;99.90
51567;DHT22;37657;53.182;5.638;2023-06-10T00:41:13;16.40;99.90
51567;DHT22;37657;53.182;5.638;2023-06-10T00:43:39;16.40;99.90
51567;DHT22;37657;53.182;5.638;2023-06-10T00:46:05;16.50;99.90
51567;DHT22;37657;53.182;5.638;2023-06-10T00:48:30;16.50;99.90
51567;DHT22;37657;53.182;5.638;2023-06-10T00:50:57;16.40;99.90
51567;DHT22;37657;53.182;5.638;2023-06-10T00:53:23;16.40;99.90
51567;DHT22;37657;53.182;5.638;2023-06-10T00:55:50;16.40;99.90
51567;DHT22;37657;53.182;5.638;2023-06-10T00:58:16;16.30;99.90
51567;DHT22;37657;53.182;5.638;2023-06-10T01:00:42;16.20;99.90
51567;DHT22;37657;53.182;5.638;2023-06-10T01:03:08;16.20;99.90
51567;DHT22;37657;53.182;5.638;2023-06-10T01:05:34;16.20;99.90
51567;DHT22;37657;53.182;5.638;2023-06-10T01:08:24;16.30;99.90
51567;DHT22;37657;53.182;5.638;2023-06-10T01:10:57;16.30;99.90
51567;DHT22;37657;53.182;5.638;2023-06-10T01:13:25;16.20;99.90
51567;DHT22;37657;53.182;5.638;2023-06-10T01:15:54;16.20;99.90
51567;DHT22;37657;53.182;5.638;2023-06-10T01:18:20;16.30;99.90
51567;DHT22;37657;53.182;5.638;2023-06-10T01:20:47;16.30;99.90
51567;DHT22;37657;53.182;5.638;2023-06-10T01:23:14;16.20;99.90
51567;DHT22;37657;53.182;5.638;2023-06-10T01:25:53;16.20;99.90
51567;DHT22;37657;53.182;5.638;2023-06-10T01:28:27;16.20;99.90
51567;DHT22;37657;53.182;5.638;2023-06-10T01:33:46;16.10;99.90
51567;DHT22;37657;53.182;5.638;2023-06-10T01:36:13;16.10;99.90
51567;DHT22;37657;53.182;5.638;2023-06-10T01:38:43;16.00;99.90
51567;DHT22;37657;53.182;5.638;2023-06-10T01:41:10;16.00;99.90
51567;DHT22;37657;53.182;5.638;2023-06-10T01:43:38;16.00;99.90
51567;DHT22;37657;53.182;5.638;2023-06-10T01:46:04;15.90;99.90
51567;DHT22;37657;53.182;5.638;2023-06-10T01:48:30;15.80;99.90
51567;DHT22;37657;53.182;5.638;2023-06-10T01:50:55;15.70;99.90
51567;DHT22;37657;53.182;5.638;2023-06-10T01:53:22;15.80;99.90
51567;DHT22;37657;53.182;5.638;2023-06-10T01:55:48;15.70;99.90
51567;DHT22;37657;53.182;5.638;2023-06-10T01:58:14;15.60;99.90
51567;DHT22;37657;53.182;5.638;2023-06-10T02:00:39;15.60;99.90
51567;DHT22;37657;53.182;5.638;2023-06-10T02:03:05;15.70;99.90
51567;DHT22;37657;53.182;5.638;2023-06-10T02:05:31;15.70;99.90
51567;DHT22;37657;53.182;5.638;2023-06-10T02:07:57;15.70;99.90
51567;DHT22;37657;53.182;5.638;2023-06-10T02:10:23;15.70;99.90
51567;DHT22;37657;53.182;5.638;2023-06-10T02:12:48;15.90;99.90
51567;DHT22;37657;53.182;5.638;2023-06-10T02:15:14;15.70;99.90
51567;DHT22;37657;53.182;5.638;2023-06-10T02:17:40;15.70;99.90
51567;DHT22;37657;53.182;5.638;2023-06-10T02:20:06;15.70;99.90
51567;DHT22;37657;53.182;5.638;2023-06-10T02:22:32;15.60;99.90
51567;DHT22;37657;53.182;5.638;2023-06-10T02:24:58;15.60;99.90
51567;DHT22;37657;53.182;5.638;2023-06-10T02:27:24;15.60;99.90
51567;DHT22;37657;53.182;5.638;2023-06-10T02:29:50;15.50;99.90
51567;DHT22;37657;53.182;5.638;2023-06-10T02:32:15;15.50;99.90
51567;DHT22;37657;53.182;5.638;2023-06-10T02:34:41;15.40;99.90
51567;DHT22;37657;53.182;5.638;2023-06-10T02:37:08;15.30;99.90
51567;DHT22;37657;53.182;5.638;2023-06-10T02:39:34;15.30;99.90
51567;DHT22;37657;53.182;5.638;2023-06-10T02:41:59;15.20;99.90
51567;DHT22;37657;53.182;5.638;2023-06-10T02:44:25;15.10;99.90
51567;DHT22;37657;53.182;5.638;2023-06-10T02:46:51;15.10;99.90
51567;DHT22;37657;53.182;5.638;2023-06-10T02:49:17;15.10;99.90
51567;DHT22;37657;53.182;5.638;2023-06-10T02:51:42;15.00;99.90
51567;DHT22;37657;53.182;5.638;2023-06-10T02:54:08;15.00;99.90
51567;DHT22;37657;53.182;5.638;2023-06-10T02:56:33;14.90;99.90
51567;DHT22;37657;53.182;5.638;2023-06-10T02:58:59;14.90;99.90
51567;DHT22;37657;53.182;5.638;2023-06-10T03:01:25;14.80;99.90
51567;DHT22;37657;53.182;5.638;2023-06-10T03:03:51;14.80;99.90
51567;DHT22;37657;53.182;5.638;2023-06-10T03:06:18;14.70;99.90
51567;DHT22;37657;53.182;5.638;2023-06-10T03:08:43;14.70;99.90
51567;DHT22;37657;53.182;5.638;2023-06-10T03:11:11;14.60;99.90
51567;DHT22;37657;53.182;5.638;2023-06-10T03:13:37;14.60;99.90
51567;DHT22;37657;53.182;5.638;2023-06-10T03:16:03;14.60;99.90
51567;DHT22;37657;53.182;5.638;2023-06-10T03:18:30;14.60;99.90
51567;DHT22;37657;53.182;5.638;2023-06-10T03:20:55;14.70;99.90
51567;DHT22;37657;53.182;5.638;2023-06-10T03:23:22;14.50;99.90
51567;DHT22;37657;53.182;5.638;2023-06-10T03:25:48;14.50;99.90
51567;DHT22;37657;53.182;5.638;2023-06-10T03:28:13;14.50;99.90
51567;DHT22;37657;53.182;5.638;2023-06-10T03:30:39;14.50;99.90
51567;DHT22;37657;53.182;5.638;2023-06-10T03:33:05;14.50;99.90
51567;DHT22;37657;53.182;5.638;2023-06-10T03:35:30;14.40;99.90
51567;DHT22;37657;53.182;5.638;2023-06-10T03:37:58;14.40;99.90
51567;DHT22;37657;53.182;5.638;2023-06-10T03:40:23;14.40;99.90
51567;DHT22;37657;53.182;5.638;2023-06-10T03:42:49;14.30;99.90
51567;DHT22;37657;53.182;5.638;2023-06-10T03:45:14;14.30;99.90
51567;DHT22;37657;53.182;5.638;2023-06-10T03:47:40;14.40;99.90
51567;DHT22;37657;53.182;5.638;2023-06-10T03:50:07;14.40;99.90
51567;DHT22;37657;53.182;5.638;2023-06-10T03:52:34;14.40;99.90
51567;DHT22;37657;53.182;5.638;2023-06-10T03:54:59;14.40;99.90
51567;DHT22;37657;53.182;5.638;2023-06-10T03:57:25;14.50;99.90
51567;DHT22;37657;53.182;5.638;2023-06-10T03:59:51;14.50;99.90
51567;DHT22;37657;53.182;5.638;2023-06-10T04:02:17;14.50;99.90
51567;DHT22;37657;53.182;5.638;2023-06-10T04:04:43;14.60;99.90
51567;DHT22;37657;53.182;5.638;2023-06-10T04:07:08;14.60;99.90
51567;DHT22;37657;53.182;5.638;2023-06-10T04:09:35;14.70;99.90
51567;DHT22;37657;53.182;5.638;2023-06-10T04:12:01;14.70;99.90
51567;DHT22;37657;53.182;5.638;2023-06-10T04:14:27;14.70;99.90
51567;DHT22;37657;53.182;5.638;2023-06-10T04:16:53;14.70;99.90
51567;DHT22;37657;53.182;5.638;2023-06-10T04:19:19;14.80;99.90
51567;DHT22;37657;53.182;5.638;2023-06-10T04:21:45;14.80;99.90
51567;DHT22;37657;53.182;5.638;2023-06-10T04:24:11;14.90;99.90
51567;DHT22;37657;53.182;5.638;2023-06-10T04:26:36;14.90;99.90
51567;DHT22;37657;53.182;5.638;2023-06-10T04:29:02;14.90;99.90
51567;DHT22;37657;53.182;5.638;2023-06-10T04:31:28;15.00;99.90
51567;DHT22;37657;53.182;5.638;2023-06-10T04:33:53;15.00;99.90
51567;DHT22;37657;53.182;5.638;2023-06-10T04:36:20;15.10;99.90
51567;DHT22;37657;53.182;5.638;2023-06-10T04:38:45;15.10;99.90
51567;DHT22;37657;53.182;5.638;2023-06-10T04:41:12;15.10;99.90
51567;DHT22;37657;53.182;5.638;2023-06-10T04:43:38;15.20;99.90
51567;DHT22;37657;53.182;5.638;2023-06-10T04:46:04;15.20;99.90
51567;DHT22;37657;53.182;5.638;2023-06-10T04:48:29;15.20;99.90
51567;DHT22;37657;53.182;5.638;2023-06-10T04:50:55;15.40;99.90
51567;DHT22;37657;53.182;5.638;2023-06-10T04:53:21;15.40;99.90
51567;DHT22;37657;53.182;5.638;2023-06-10T04:55:47;15.50;99.90
51567;DHT22;37657;53.182;5.638;2023-06-10T04:58:14;15.60;99.90
51567;DHT22;37657;53.182;5.638;2023-06-10T05:00:40;15.70;99.90
51567;DHT22;37657;53.182;5.638;2023-06-10T05:03:05;15.80;99.90
51567;DHT22;37657;53.182;5.638;2023-06-10T05:05:31;15.90;99.90
51567;DHT22;37657;53.182;5.638;2023-06-10T05:07:56;16.00;99.90
51567;DHT22;37657;53.182;5.638;2023-06-10T05:10:22;16.10;99.90
51567;DHT22;37657;53.182;5.638;2023-06-10T05:12:48;16.20;99.90
51567;DHT22;37657;53.182;5.638;2023-06-10T05:15:13;16.30;99.90
51567;DHT22;37657;53.182;5.638;2023-06-10T05:17:39;16.40;99.90
51567;DHT22;37657;53.182;5.638;2023-06-10T05:20:08;16.50;99.90
51567;DHT22;37657;53.182;5.638;2023-06-10T05:22:34;16.60;99.90
51567;DHT22;37657;53.182;5.638;2023-06-10T05:24:59;16.70;99.90
51567;DHT22;37657;53.182;5.638;2023-06-10T05:27:25;16.80;99.90
51567;DHT22;37657;53.182;5.638;2023-06-10T05:29:51;16.90;99.90
51567;DHT22;37657;53.182;5.638;2023-06-10T05:32:17;17.00;99.90
51567;DHT22;37657;53.182;5.638;2023-06-10T05:34:42;17.00;99.90
51567;DHT22;37657;53.182;5.638;2023-06-10T05:37:08;17.10;99.90
51567;DHT22;37657;53.182;5.638;2023-06-10T05:39:36;17.20;99.90
51567;DHT22;37657;53.182;5.638;2023-06-10T05:42:06;17.20;99.90
51567;DHT22;37657;53.182;5.638;2023-06-10T05:44:32;17.30;99.90
51567;DHT22;37657;53.182;5.638;2023-06-10T05:46:58;17.30;99.90
51567;DHT22;37657;53.182;5.638;2023-06-10T05:49:24;17.40;99.90
51567;DHT22;37657;53.182;5.638;2023-06-10T05:51:49;17.40;99.90
51567;DHT22;37657;53.182;5.638;2023-06-10T05:54:15;17.50;99.90
51567;DHT22;37657;53.182;5.638;2023-06-10T05:56:40;17.50;99.90
51567;DHT22;37657;53.182;5.638;2023-06-10T05:59:06;17.50;99.90
51567;DHT22;37657;53.182;5.638;2023-06-10T06:01:32;17.60;99.90
51567;DHT22;37657;53.182;5.638;2023-06-10T06:03:57;17.60;99.90
51567;DHT22;37657;53.182;5.638;2023-06-10T06:06:23;17.60;99.90
51567;DHT22;37657;53.182;5.638;2023-06-10T06:08:49;17.60;99.90
51567;DHT22;37657;53.182;5.638;2023-06-10T06:11:14;17.70;99.90
51567;DHT22;37657;53.182;5.638;2023-06-10T06:13:40;17.80;99.90
51567;DHT22;37657;53.182;5.638;2023-06-10T06:16:07;17.80;99.90
51567;DHT22;37657;53.182;5.638;2023-06-10T06:18:33;17.80;99.90
51567;DHT22;37657;53.182;5.638;2023-06-10T06:20:58;18.00;99.90
51567;DHT22;37657;53.182;5.638;2023-06-10T06:23:24;18.00;99.90
51567;DHT22;37657;53.182;5.638;2023-06-10T06:25:49;18.10;99.90
51567;DHT22;37657;53.182;5.638;2023-06-10T06:28:15;18.00;99.90
51567;DHT22;37657;53.182;5.638;2023-06-10T06:30:41;18.10;99.90
51567;DHT22;37657;53.182;5.638;2023-06-10T06:33:06;18.10;99.90
51567;DHT22;37657;53.182;5.638;2023-06-10T06:35:33;18.20;99.90
51567;DHT22;37657;53.182;5.638;2023-06-10T06:37:59;18.30;99.90
51567;DHT22;37657;53.182;5.638;2023-06-10T06:40:25;18.30;99.90
51567;DHT22;37657;53.182;5.638;2023-06-10T06:42:50;18.30;99.90
51567;DHT22;37657;53.182;5.638;2023-06-10T06:45:16;18.40;99.90
51567;DHT22;37657;53.182;5.638;2023-06-10T06:47:41;18.40;99.90
51567;DHT22;37657;53.182;5.638;2023-06-10T06:50:08;18.50;99.90
51567;DHT22;37657;53.182;5.638;2023-06-10T06:52:34;18.50;99.90
51567;DHT22;37657;53.182;5.638;2023-06-10T06:55:00;18.60;99.90
51567;DHT22;37657;53.182;5.638;2023-06-10T06:57:25;18.60;99.90
51567;DHT22;37657;53.182;5.638;2023-06-10T06:59:51;18.70;99.90
51567;DHT22;37657;53.182;5.638;2023-06-10T07:02:16;18.70;99.90
51567;DHT22;37657;53.182;5.638;2023-06-10T07:04:42;18.70;99.90
51567;DHT22;37657;53.182;5.638;2023-06-10T07:07:08;18.80;99.90
51567;DHT22;37657;53.182;5.638;2023-06-10T07:09:37;18.80;99.90
51567;DHT22;37657;53.182;5.638;2023-06-10T07:12:03;18.90;99.90
51567;DHT22;37657;53.182;5.638;2023-06-10T07:14:29;18.90;99.90
51567;DHT22;37657;53.182;5.638;2023-06-10T07:16:54;19.00;99.90
51567;DHT22;37657;53.182;5.638;2023-06-10T07:19:20;19.10;99.90
51567;DHT22;37657;53.182;5.638;2023-06-10T07:21:45;19.10;99.90
51567;DHT22;37657;53.182;5.638;2023-06-10T07:24:11;19.10;99.90
51567;DHT22;37657;53.182;5.638;2023-06-10T07:26:36;19.20;99.90
51567;DHT22;37657;53.182;5.638;2023-06-10T07:29:02;19.30;99.90
51567;DHT22;37657;53.182;5.638;2023-06-10T07:31:28;19.40;99.90
51567;DHT22;37657;53.182;5.638;2023-06-10T07:33:54;19.40;99.90
51567;DHT22;37657;53.182;5.638;2023-06-10T07:36:19;19.50;99.90
51567;DHT22;37657;53.182;5.638;2023-06-10T07:38:45;19.50;99.90
51567;DHT22;37657;53.182;5.638;2023-06-10T07:41:10;19.60;99.90
51567;DHT22;37657;53.182;5.638;2023-06-10T07:43:37;19.70;99.90
51567;DHT22;37657;53.182;5.638;2023-06-10T07:46:02;19.70;99.90
51567;DHT22;37657;53.182;5.638;2023-06-10T07:48:28;19.70;99.90
51567;DHT22;37657;53.182;5.638;2023-06-10T07:50:53;19.80;99.90
51567;DHT22;37657;53.182;5.638;2023-06-10T07:53:19;19.90;99.90
51567;DHT22;37657;53.182;5.638;2023-06-10T07:55:45;19.90;99.90
51567;DHT22;37657;53.182;5.638;2023-06-10T07:58:10;20.00;99.90
51567;DHT22;37657;53.182;5.638;2023-06-10T08:00:36;20.00;99.90
51567;DHT22;37657;53.182;5.638;2023-06-10T08:03:02;20.20;99.90
51567;DHT22;37657;53.182;5.638;2023-06-10T08:05:27;20.20;99.90
51567;DHT22;37657;53.182;5.638;2023-06-10T08:07:53;20.30;99.90
51567;DHT22;37657;53.182;5.638;2023-06-10T08:10:19;20.40;99.90
51567;DHT22;37657;53.182;5.638;2023-06-10T08:12:44;20.40;99.90
51567;DHT22;37657;53.182;5.638;2023-06-10T08:15:10;20.50;99.90
51567;DHT22;37657;53.182;5.638;2023-06-10T08:17:37;20.50;99.90
51567;DHT22;37657;53.182;5.638;2023-06-10T08:20:04;20.70;99.90
51567;DHT22;37657;53.182;5.638;2023-06-10T08:22:31;20.70;99.90
51567;DHT22;37657;53.182;5.638;2023-06-10T08:24:56;20.80;99.90
51567;DHT22;37657;53.182;5.638;2023-06-10T08:27:22;20.90;99.90
51567;DHT22;37657;53.182;5.638;2023-06-10T08:29:47;21.00;99.90
51567;DHT22;37657;53.182;5.638;2023-06-10T08:32:13;21.10;99.90
51567;DHT22;37657;53.182;5.638;2023-06-10T08:34:39;21.20;99.90
51567;DHT22;37657;53.182;5.638;2023-06-10T08:37:04;21.30;99.90
51567;DHT22;37657;53.182;5.638;2023-06-10T08:39:30;21.30;99.90
51567;DHT22;37657;53.182;5.638;2023-06-10T08:42:27;21.50;99.90
51567;DHT22;37657;53.182;5.638;2023-06-10T08:44:54;21.60;99.90
51567;DHT22;37657;53.182;5.638;2023-06-10T08:47:22;21.70;99.90
51567;DHT22;37657;53.182;5.638;2023-06-10T08:49:48;21.80;99.90
51567;DHT22;37657;53.182;5.638;2023-06-10T08:52:16;21.90;99.90
51567;DHT22;37657;53.182;5.638;2023-06-10T08:55:03;22.00;99.90
51567;DHT22;37657;53.182;5.638;2023-06-10T08:57:29;22.10;99.90
51567;DHT22;37657;53.182;5.638;2023-06-10T08:59:57;22.10;99.90
51567;DHT22;37657;53.182;5.638;2023-06-10T09:02:26;22.20;99.90
51567;DHT22;37657;53.182;5.638;2023-06-10T09:04:53;22.30;99.90
51567;DHT22;37657;53.182;5.638;2023-06-10T09:07:19;22.40;99.90
51567;DHT22;37657;53.182;5.638;2023-06-10T09:09:45;22.50;99.90
51567;DHT22;37657;53.182;5.638;2023-06-10T09:12:15;22.60;99.90
51567;DHT22;37657;53.182;5.638;2023-06-10T09:14:41;22.60;99.90
51567;DHT22;37657;53.182;5.638;2023-06-10T09:17:07;22.70;99.90
51567;DHT22;37657;53.182;5.638;2023-06-10T09:19:33;22.90;99.90
51567;DHT22;37657;53.182;5.638;2023-06-10T09:21:59;23.00;99.90
51567;DHT22;37657;53.182;5.638;2023-06-10T09:24:25;23.00;99.90
51567;DHT22;37657;53.182;5.638;2023-06-10T09:27:05;23.10;99.90
51567;DHT22;37657;53.182;5.638;2023-06-10T09:29:51;23.10;99.90
51567;DHT22;37657;53.182;5.638;2023-06-10T09:32:18;23.20;99.90
51567;DHT22;37657;53.182;5.638;2023-06-10T09:34:44;23.20;99.90
51567;DHT22;37657;53.182;5.638;2023-06-10T09:37:11;23.40;99.90
51567;DHT22;37657;53.182;5.638;2023-06-10T09:39:39;23.50;99.90
51567;DHT22;37657;53.182;5.638;2023-06-10T09:42:18;23.60;99.90
51567;DHT22;37657;53.182;5.638;2023-06-10T09:44:51;23.60;99.90
51567;DHT22;37657;53.182;5.638;2023-06-10T09:47:21;23.60;99.90
51567;DHT22;37657;53.182;5.638;2023-06-10T09:49:51;23.80;99.90
51567;DHT22;37657;53.182;5.638;2023-06-10T09:52:28;23.80;99.90
51567;DHT22;37657;53.182;5.638;2023-06-10T09:54:59;23.80;99.90
51567;DHT22;37657;53.182;5.638;2023-06-10T09:57:25;23.90;99.90
51567;DHT22;37657;53.182;5.638;2023-06-10T09:59:54;24.00;99.90
51567;DHT22;37657;53.182;5.638;2023-06-10T10:02:20;24.00;99.90
51567;DHT22;37657;53.182;5.638;2023-06-10T10:04:46;24.00;99.90
51567;DHT22;37657;53.182;5.638;2023-06-10T10:07:12;24.10;99.90
51567;DHT22;37657;53.182;5.638;2023-06-10T10:09:39;24.20;99.90
51567;DHT22;37657;53.182;5.638;2023-06-10T10:12:11;24.30;99.90
51567;DHT22;37657;53.182;5.638;2023-06-10T10:14:38;24.40;99.90
51567;DHT22;37657;53.182;5.638;2023-06-10T10:17:10;24.30;99.90
51567;DHT22;37657;53.182;5.638;2023-06-10T10:19:43;24.50;99.90
51567;DHT22;37657;53.182;5.638;2023-06-10T10:22:18;24.60;99.90
51567;DHT22;37657;53.182;5.638;2023-06-10T10:24:55;24.60;99.90
51567;DHT22;37657;53.182;5.638;2023-06-10T10:27:47;24.70;99.90
51567;DHT22;37657;53.182;5.638;2023-06-10T10:30:14;24.70;99.90
51567;DHT22;37657;53.182;5.638;2023-06-10T10:33:06;24.70;98.40
51567;DHT22;37657;53.182;5.638;2023-06-10T10:35:36;24.90;99.00
51567;DHT22;37657;53.182;5.638;2023-06-10T10:38:03;24.90;98.40
51567;DHT22;37657;53.182;5.638;2023-06-10T10:40:29;24.90;98.40
51567;DHT22;37657;53.182;5.638;2023-06-10T10:42:56;24.90;98.60
51567;DHT22;37657;53.182;5.638;2023-06-10T10:45:22;25.00;99.30
51567;DHT22;37657;53.182;5.638;2023-06-10T10:47:52;25.10;99.00
51567;DHT22;37657;53.182;5.638;2023-06-10T10:50:20;25.00;99.30
51567;DHT22;37657;53.182;5.638;2023-06-10T10:52:56;25.10;99.30
51567;DHT22;37657;53.182;5.638;2023-06-10T10:55:23;25.20;98.90
51567;DHT22;37657;53.182;5.638;2023-06-10T10:58:07;25.20;99.00
51567;DHT22;37657;53.182;5.638;2023-06-10T11:00:43;25.20;99.20
51567;DHT22;37657;53.182;5.638;2023-06-10T11:03:14;25.20;99.90
51567;DHT22;37657;53.182;5.638;2023-06-10T11:05:46;25.30;99.90
51567;DHT22;37657;53.182;5.638;2023-06-10T11:11:02;25.40;99.10
51567;DHT22;37657;53.182;5.638;2023-06-10T11:13:58;25.60;98.20
51567;DHT22;37657;53.182;5.638;2023-06-10T11:16:26;25.40;98.60
51567;DHT22;37657;53.182;5.638;2023-06-10T11:18:55;25.60;97.70
51567;DHT22;37657;53.182;5.638;2023-06-10T11:21:23;25.60;97.90
51567;DHT22;37657;53.182;5.638;2023-06-10T11:23:50;25.60;98.10
51567;DHT22;37657;53.182;5.638;2023-06-10T11:31:27;25.80;98.20
51567;DHT22;37657;53.182;5.638;2023-06-10T11:33:58;25.90;98.10
51567;DHT22;37657;53.182;5.638;2023-06-10T11:36:28;26.00;97.70
51567;DHT22;37657;53.182;5.638;2023-06-10T11:38:56;26.00;97.30
51567;DHT22;37657;53.182;5.638;2023-06-10T11:41:24;26.00;97.20
51567;DHT22;37657;53.182;5.638;2023-06-10T11:43:52;26.10;97.10
51567;DHT22;37657;53.182;5.638;2023-06-10T11:46:18;26.00;97.70
51567;DHT22;37657;53.182;5.638;2023-06-10T11:48:51;26.00;96.30
51567;DHT22;37657;53.182;5.638;2023-06-10T11:51:17;26.30;96.30
51567;DHT22;37657;53.182;5.638;2023-06-10T11:53:49;26.20;96.10
51567;DHT22;37657;53.182;5.638;2023-06-10T11:56:20;26.20;96.70
51567;DHT22;37657;53.182;5.638;2023-06-10T11:58:52;26.20;96.20
51567;DHT22;37657;53.182;5.638;2023-06-10T12:01:23;26.20;96.50
51567;DHT22;37657;53.182;5.638;2023-06-10T12:04:01;26.30;96.70
51567;DHT22;37657;53.182;5.638;2023-06-10T12:06:27;26.30;99.10
51567;DHT22;37657;53.182;5.638;2023-06-10T12:09:02;26.20;99.90
51567;DHT22;37657;53.182;5.638;2023-06-10T12:11:28;26.20;99.90
51567;DHT22;37657;53.182;5.638;2023-06-10T12:13:53;26.20;99.90
51567;DHT22;37657;53.182;5.638;2023-06-10T12:16:19;26.20;99.90
51567;DHT22;37657;53.182;5.638;2023-06-10T12:18:46;26.10;99.90
51567;DHT22;37657;53.182;5.638;2023-06-10T12:21:24;26.10;99.90
51567;DHT22;37657;53.182;5.638;2023-06-10T12:24:03;26.00;99.90
51567;DHT22;37657;53.182;5.638;2023-06-10T12:26:38;26.20;99.90
51567;DHT22;37657;53.182;5.638;2023-06-10T12:29:24;26.10;99.90
51567;DHT22;37657;53.182;5.638;2023-06-10T12:31:58;26.30;99.90
51567;DHT22;37657;53.182;5.638;2023-06-10T12:34:29;26.20;99.90
51567;DHT22;37657;53.182;5.638;2023-06-10T12:36:54;26.00;99.90
51567;DHT22;37657;53.182;5.638;2023-06-10T12:39:20;26.20;99.90
51567;DHT22;37657;53.182;5.638;2023-06-10T12:41:51;26.10;99.90
51567;DHT22;37657;53.182;5.638;2023-06-10T12:44:16;26.00;99.90
51567;DHT22;37657;53.182;5.638;2023-06-10T12:46:42;26.00;99.90
51567;DHT22;37657;53.182;5.638;2023-06-10T12:49:07;26.00;99.90
51567;DHT22;37657;53.182;5.638;2023-06-10T12:51:33;26.00;99.90
51567;DHT22;37657;53.182;5.638;2023-06-10T12:54:00;26.00;99.90
51567;DHT22;37657;53.182;5.638;2023-06-10T12:56:25;25.90;99.90
51567;DHT22;37657;53.182;5.638;2023-06-10T12:58:51;25.90;99.90
51567;DHT22;37657;53.182;5.638;2023-06-10T13:01:16;25.70;99.90
51567;DHT22;37657;53.182;5.638;2023-06-10T13:03:42;25.70;99.90
51567;DHT22;37657;53.182;5.638;2023-06-10T13:06:07;25.60;99.90
51567;DHT22;37657;53.182;5.638;2023-06-10T13:08:33;25.70;99.90
51567;DHT22;37657;53.182;5.638;2023-06-10T13:10:58;25.60;99.90
51567;DHT22;37657;53.182;5.638;2023-06-10T13:13:24;25.50;99.90
51567;DHT22;37657;53.182;5.638;2023-06-10T13:15:51;25.70;99.90
51567;DHT22;37657;53.182;5.638;2023-06-10T13:18:17;25.70;99.90
51567;DHT22;37657;53.182;5.638;2023-06-10T13:20:44;25.70;99.90
51567;DHT22;37657;53.182;5.638;2023-06-10T13:23:10;25.60;99.90
51567;DHT22;37657;53.182;5.638;2023-06-10T13:25:35;25.60;99.90
51567;DHT22;37657;53.182;5.638;2023-06-10T13:28:01;25.60;99.90
51567;DHT22;37657;53.182;5.638;2023-06-10T13:30:27;25.60;99.90
51567;DHT22;37657;53.182;5.638;2023-06-10T13:32:53;25.30;99.90
51567;DHT22;37657;53.182;5.638;2023-06-10T13:35:19;25.20;99.90
51567;DHT22;37657;53.182;5.638;2023-06-10T13:37:44;25.20;99.90
51567;DHT22;37657;53.182;5.638;2023-06-10T13:40:10;25.20;99.90
51567;DHT22;37657;53.182;5.638;2023-06-10T13:42:37;25.10;99.90
51567;DHT22;37657;53.182;5.638;2023-06-10T13:45:03;25.30;99.90
51567;DHT22;37657;53.182;5.638;2023-06-10T13:47:29;25.30;99.90
51567;DHT22;37657;53.182;5.638;2023-06-10T13:49:55;25.30;99.90
51567;DHT22;37657;53.182;5.638;2023-06-10T13:52:20;25.20;99.90
51567;DHT22;37657;53.182;5.638;2023-06-10T13:54:46;25.20;99.90
51567;DHT22;37657;53.182;5.638;2023-06-10T13:57:11;25.10;99.90
51567;DHT22;37657;53.182;5.638;2023-06-10T13:59:37;25.00;99.90
51567;DHT22;37657;53.182;5.638;2023-06-10T14:02:03;24.80;99.90
51567;DHT22;37657;53.182;5.638;2023-06-10T14:04:29;24.90;99.90
51567;DHT22;37657;53.182;5.638;2023-06-10T14:06:55;24.90;99.90
51567;DHT22;37657;53.182;5.638;2023-06-10T14:09:23;25.00;99.90
51567;DHT22;37657;53.182;5.638;2023-06-10T14:11:48;25.00;99.90
51567;DHT22;37657;53.182;5.638;2023-06-10T14:14:14;25.00;99.90
51567;DHT22;37657;53.182;5.638;2023-06-10T14:16:40;25.10;99.90
51567;DHT22;37657;53.182;5.638;2023-06-10T14:19:06;24.90;99.90
51567;DHT22;37657;53.182;5.638;2023-06-10T14:21:31;24.80;99.90
51567;DHT22;37657;53.182;5.638;2023-06-10T14:23:59;24.80;99.90
51567;DHT22;37657;53.182;5.638;2023-06-10T14:26:25;25.00;99.90
51567;DHT22;37657;53.182;5.638;2023-06-10T14:28:51;24.80;99.90
51567;DHT22;37657;53.182;5.638;2023-06-10T14:31:17;24.70;99.90
51567;DHT22;37657;53.182;5.638;2023-06-10T14:33:42;24.70;99.90
51567;DHT22;37657;53.182;5.638;2023-06-10T14:36:10;24.80;99.90
51567;DHT22;37657;53.182;5.638;2023-06-10T14:38:36;24.70;99.90
51567;DHT22;37657;53.182;5.638;2023-06-10T14:41:01;24.70;99.90
51567;DHT22;37657;53.182;5.638;2023-06-10T14:43:30;24.80;99.90
51567;DHT22;37657;53.182;5.638;2023-06-10T14:45:56;25.00;99.90
51567;DHT22;37657;53.182;5.638;2023-06-10T14:48:22;25.00;99.90
51567;DHT22;37657;53.182;5.638;2023-06-10T14:50:48;25.00;99.90
51567;DHT22;37657;53.182;5.638;2023-06-10T14:53:17;25.00;99.90
51567;DHT22;37657;53.182;5.638;2023-06-10T14:55:43;24.90;99.90
51567;DHT22;37657;53.182;5.638;2023-06-10T14:58:08;24.90;99.90
51567;DHT22;37657;53.182;5.638;2023-06-10T15:00:34;24.80;99.90
51567;DHT22;37657;53.182;5.638;2023-06-10T15:02:59;24.80;99.90
51567;DHT22;37657;53.182;5.638;2023-06-10T15:05:25;24.80;99.90
51567;DHT22;37657;53.182;5.638;2023-06-10T15:07:51;24.70;99.90
51567;DHT22;37657;53.182;5.638;2023-06-10T15:10:16;24.80;99.90
51567;DHT22;37657;53.182;5.638;2023-06-10T15:12:42;24.70;99.90
51567;DHT22;37657;53.182;5.638;2023-06-10T15:15:08;24.70;99.90
51567;DHT22;37657;53.182;5.638;2023-06-10T15:17:33;24.90;99.90
51567;DHT22;37657;53.182;5.638;2023-06-10T15:19:59;24.70;99.90
51567;DHT22;37657;53.182;5.638;2023-06-10T15:22:25;24.60;99.90
51567;DHT22;37657;53.182;5.638;2023-06-10T15:24:50;24.80;99.90
51567;DHT22;37657;53.182;5.638;2023-06-10T15:27:16;24.80;99.90
51567;DHT22;37657;53.182;5.638;2023-06-10T15:29:41;24.70;99.90
51567;DHT22;37657;53.182;5.638;2023-06-10T15:32:07;24.80;99.90
51567;DHT22;37657;53.182;5.638;2023-06-10T15:34:33;24.70;99.90
51567;DHT22;37657;53.182;5.638;2023-06-10T15:36:59;24.80;99.90
51567;DHT22;37657;53.182;5.638;2023-06-10T15:39:24;24.90;99.90
51567;DHT22;37657;53.182;5.638;2023-06-10T15:41:52;24.90;99.90